createdAt,value
2022-08-18T00:01:33.017Z,973.6
2022-08-18T00:08:53.761Z,973.58
2022-08-18T00:15:50.134Z,973.71
2022-08-18T00:22:24.169Z,973.7
2022-08-18T00:29:01.166Z,973.64
2022-08-18T00:35:46.116Z,973.58
2022-08-18T00:42:27.210Z,973.6
2022-08-18T00:49:09.183Z,973.58
2022-08-18T00:55:55.249Z,973.59
2022-08-18T01:02:49.984Z,973.69
2022-08-18T01:09:38.629Z,973.72
2022-08-18T01:16:13.158Z,973.77
2022-08-18T01:22:57.164Z,973.71
2022-08-18T01:29:44.229Z,973.65
2022-08-18T01:36:19.985Z,973.72
2022-08-18T01:42:55.251Z,973.76
2022-08-18T01:50:03.288Z,973.78
2022-08-18T01:56:28.328Z,973.7
2022-08-18T02:03:08.063Z,973.72
2022-08-18T02:09:54.081Z,973.61
2022-08-18T02:16:26.358Z,973.61
2022-08-18T02:23:11.302Z,973.61
2022-08-18T02:29:41.539Z,973.65
2022-08-18T02:36:14.914Z,973.58
2022-08-18T02:42:55.309Z,973.55
2022-08-18T02:49:31.629Z,973.57
2022-08-18T02:55:57.163Z,973.56
2022-08-18T03:02:32.200Z,973.53
2022-08-18T03:09:01.384Z,973.55
2022-08-18T03:15:31.320Z,973.6
2022-08-18T03:22:04.106Z,973.62
2022-08-18T03:28:44.503Z,973.65
2022-08-18T03:35:21.118Z,973.67
2022-08-18T03:42:02.292Z,973.63
2022-08-18T03:48:38.109Z,973.61
2022-08-18T03:55:04.467Z,973.66
2022-08-18T04:01:44.618Z,973.67
2022-08-18T04:08:20.223Z,973.72
2022-08-18T04:14:50.563Z,973.61
2022-08-18T04:21:14.255Z,973.58
2022-08-18T04:27:50.576Z,973.57
2022-08-18T04:34:22.249Z,973.59
2022-08-18T04:41:03.372Z,973.65
2022-08-18T04:47:45.272Z,973.63
2022-08-18T04:54:23.714Z,973.74
2022-08-18T05:01:06.776Z,973.82
2022-08-18T05:07:47.378Z,973.82
2022-08-18T05:14:14.508Z,973.93
2022-08-18T05:20:40.662Z,973.97
2022-08-18T05:27:16.291Z,974.03
2022-08-18T05:33:48.405Z,974.03
2022-08-18T05:40:38.763Z,974.09
2022-08-18T05:47:20.247Z,974.13
2022-08-18T05:54:04.100Z,974.18
2022-08-18T06:01:00.954Z,974.23
2022-08-18T06:07:56.156Z,974.23
2022-08-18T06:14:45.188Z,974.13
2022-08-18T06:21:44.292Z,974.09
2022-08-18T06:28:41.227Z,974.01
2022-08-18T06:35:48.757Z,974.06
2022-08-18T06:43:02.684Z,974.15
2022-08-18T06:49:58.282Z,974.19
2022-08-18T06:56:58.851Z,974.19
2022-08-18T07:03:53.592Z,974.25
2022-08-18T07:10:43.456Z,974.36
2022-08-18T07:17:40.987Z,974.33
2022-08-18T07:24:43.017Z,974.33
2022-08-18T07:31:26.251Z,974.34
2022-08-18T07:38:41.264Z,974.34
2022-08-18T07:45:34.909Z,974.28
2022-08-18T07:52:44.601Z,974.34
2022-08-18T07:59:38.475Z,974.3
2022-08-18T08:07:22.692Z,974.29
2022-08-18T08:14:18.532Z,974.22
2022-08-18T08:21:27.892Z,974.25
2022-08-18T08:28:31.821Z,974.24
2022-08-18T08:35:47.484Z,974.43
2022-08-18T08:42:42.414Z,974.51
2022-08-18T08:50:00.008Z,974.54
2022-08-18T08:57:10.559Z,974.58
2022-08-18T09:04:12.794Z,974.64
2022-08-18T09:11:15.505Z,974.78
2022-08-18T09:18:37.599Z,974.68
2022-08-18T09:25:33.524Z,974.56
2022-08-18T09:32:40.099Z,974.51
2022-08-18T09:39:57.030Z,974.54
2022-08-18T09:47:09.924Z,974.46
2022-08-18T09:54:13.912Z,974.34
2022-08-18T10:01:07.161Z,974.21
2022-08-18T10:08:04.372Z,974.15
2022-08-18T10:14:53.763Z,974.03
2022-08-18T10:21:41.469Z,973.79
2022-08-18T10:28:38.311Z,973.82
2022-08-18T10:35:33.486Z,973.88
2022-08-18T10:42:32.427Z,973.9
2022-08-18T10:49:28.487Z,973.9
2022-08-18T10:56:34.324Z,973.95
2022-08-18T11:03:50.774Z,974.12
2022-08-18T11:11:27.875Z,974.42
2022-08-18T11:18:11.667Z,974.38
2022-08-18T11:24:56.782Z,974.03
2022-08-18T11:31:39.112Z,973.94
2022-08-18T11:38:34.419Z,973.8
2022-08-18T11:45:25.038Z,973.91
2022-08-18T11:52:12.626Z,973.81
2022-08-18T11:59:15.896Z,973.74
2022-08-18T12:06:30.602Z,973.68
2022-08-18T12:13:29.724Z,973.6
2022-08-18T12:20:12.528Z,973.59
2022-08-18T12:27:20.547Z,973.5
2022-08-18T12:33:59.889Z,973.45
2022-08-18T12:40:20.040Z,973.49
2022-08-18T12:46:49.498Z,973.45
2022-08-18T13:00:19.603Z,973.41
2022-08-18T13:07:01.771Z,973.4
2022-08-18T13:20:05.705Z,973.43
2022-08-18T13:26:33.440Z,973.28
2022-08-18T13:33:34.342Z,973.24
2022-08-18T13:39:53.476Z,973.22
2022-08-18T13:46:32.253Z,973.18
2022-08-18T13:59:53.575Z,973.06
2022-08-18T14:12:57.909Z,973.07
2022-08-18T14:19:28.805Z,972.98
2022-08-18T14:26:02.787Z,972.92
2022-08-18T14:32:48.784Z,972.83
2022-08-18T14:39:26.196Z,972.86
2022-08-18T14:45:53.509Z,972.82
2022-08-18T14:52:24.468Z,972.85
2022-08-18T14:58:51.984Z,972.84
2022-08-18T15:05:25.998Z,972.86
2022-08-18T15:12:04.122Z,972.82
2022-08-18T15:18:36.032Z,972.83
2022-08-18T15:24:58.569Z,972.84
2022-08-18T15:31:50.747Z,972.91
2022-08-18T15:38:32.363Z,972.91
2022-08-18T15:45:14.314Z,972.86
2022-08-18T15:51:46.535Z,972.92
2022-08-18T15:58:29.320Z,972.83
2022-08-18T16:05:15.780Z,972.87
2022-08-18T16:11:51.710Z,972.91
2022-08-18T16:18:29.469Z,972.9
2022-08-18T16:25:04.676Z,972.93
2022-08-18T16:31:27.708Z,972.97
2022-08-18T16:38:04.839Z,972.97
2022-08-18T16:44:41.664Z,972.96
2022-08-18T16:51:03.726Z,973.06
2022-08-18T16:57:50.666Z,973.02
2022-08-18T17:04:22.936Z,972.97
2022-08-18T17:10:54.270Z,972.95
2022-08-18T17:17:43.743Z,972.92
2022-08-18T17:24:12.838Z,972.96
2022-08-18T17:31:04.671Z,972.95
2022-08-18T17:37:52.172Z,973
2022-08-18T17:44:54.528Z,973.01
2022-08-18T17:51:55.742Z,973
2022-08-18T17:58:49.624Z,973.06
2022-08-18T18:05:39.769Z,973.07
2022-08-18T18:12:59.845Z,973.08
2022-08-18T18:19:48.602Z,973.05
2022-08-18T18:26:52.771Z,973.07
2022-08-18T18:33:37.729Z,973.09
2022-08-18T18:40:36.814Z,973.14
2022-08-18T18:47:33.048Z,973.18
2022-08-18T18:54:28.772Z,973.26
2022-08-18T19:01:37.402Z,973.24
2022-08-18T19:08:44.892Z,973.32
2022-08-18T19:15:50.815Z,973.35
2022-08-18T19:22:55.007Z,973.44
2022-08-18T19:30:18.660Z,973.5
2022-08-18T19:37:35.814Z,973.63
2022-08-18T19:45:15.696Z,973.72
2022-08-18T19:52:43.081Z,973.77
2022-08-18T19:59:54.997Z,973.69
2022-08-18T20:07:07.508Z,973.74
2022-08-18T20:13:55.226Z,973.74
2022-08-18T20:20:39.837Z,973.71
2022-08-18T20:27:40.776Z,973.76
2022-08-18T20:34:36.793Z,973.72
2022-08-18T20:41:23.303Z,973.72
2022-08-18T20:48:20.958Z,973.8
2022-08-18T20:55:18.751Z,973.82
2022-08-18T21:01:59.857Z,973.87
2022-08-18T21:08:52.919Z,973.84
2022-08-18T21:15:43.864Z,973.86
2022-08-18T21:22:27.926Z,973.96
2022-08-18T21:29:17.149Z,973.95
2022-08-18T21:36:02.011Z,973.97
2022-08-18T21:42:52.082Z,974.05
2022-08-18T21:49:43.878Z,974.05
2022-08-18T21:56:53.223Z,974.05
2022-08-18T22:04:01.993Z,974.07
2022-08-18T22:11:03.413Z,974.06
2022-08-18T22:18:31.890Z,974.11
2022-08-18T22:25:16.274Z,974.14
2022-08-18T22:31:56.998Z,974.15
2022-08-18T22:38:36.941Z,974.11
2022-08-18T22:45:17.830Z,974.24
2022-08-18T22:51:53.884Z,974.18
2022-08-18T22:58:34.262Z,974.24
2022-08-18T23:05:11.272Z,974.28
2022-08-18T23:11:36.949Z,974.24
2022-08-18T23:18:04.308Z,974.33
2022-08-18T23:24:38.151Z,974.45
2022-08-18T23:31:17.916Z,974.43
2022-08-18T23:37:45.074Z,974.48
2022-08-18T23:44:09.081Z,974.4
2022-08-18T23:50:32.291Z,974.3
2022-08-18T23:57:02.779Z,974.35
